Norwich, Connecticut
Current Conditions -  °F | °C
As of 6:56 PM on Thursday 18 Dec 2014 (Local Time) from KGON Reporting Station
Clear Clear  
Wind Chill: 30°   Ceiling: Unl
Heat Index: 36°   Visibility: 8mi
Dew Point: 27°   Wind: 7mph
Humidity: 70%   Direction: 310°NW
Pressure: 29.9"   Gusts: NA
Location:  41.53°N, 72.08°W
Report Text: KGON 182356Z 31006KT 8SM CLR 02/M03 A2990 RMK AO2 SLP124 T00221028 10050 20022 50009
Loading
Personal Weather Stations






























Interactive Weather Map New forecast layout! Learn more

10-Day Weather Forecast

Advertisements
Track Severe Weather on mobile